sensor_id;sensor_type;location;lat;lon;timestamp;pressure;altitude;pressure_sealevel;temperature;humidity
19783;BME280;10051;40.294;-3.754;2022-10-16T00:01:12;94155.84;;;20.47;41.41
19783;BME280;10051;40.294;-3.754;2022-10-16T00:03:39;94142.56;;;20.34;41.67
19783;BME280;10051;40.294;-3.754;2022-10-16T00:06:05;94154.66;;;20.44;41.61
19783;BME280;10051;40.294;-3.754;2022-10-16T00:08:31;94075.47;;;19.91;41.59
19783;BME280;10051;40.294;-3.754;2022-10-16T00:11:12;94107.81;;;20.18;41.79
19783;BME280;10051;40.294;-3.754;2022-10-16T00:13:40;94155.66;;;20.40;42.07
19783;BME280;10051;40.294;-3.754;2022-10-16T00:16:06;94153.59;;;20.33;41.84
19783;BME280;10051;40.294;-3.754;2022-10-16T00:18:32;94126.38;;;19.99;42.22
19783;BME280;10051;40.294;-3.754;2022-10-16T00:21:08;94153.09;;;20.15;42.38
19783;BME280;10051;40.294;-3.754;2022-10-16T00:23:35;94158.22;;;20.20;42.21
19783;BME280;10051;40.294;-3.754;2022-10-16T00:26:03;94162.28;;;20.30;42.23
19783;BME280;10051;40.294;-3.754;2022-10-16T00:28:30;94141.75;;;20.18;42.22
19783;BME280;10051;40.294;-3.754;2022-10-16T00:30:56;94106.81;;;19.95;41.98
19783;BME280;10051;40.294;-3.754;2022-10-16T00:33:21;94130.91;;;19.98;42.40
19783;BME280;10051;40.294;-3.754;2022-10-16T00:35:47;94123.25;;;19.84;42.51
19783;BME280;10051;40.294;-3.754;2022-10-16T00:38:12;94108.84;;;19.73;42.53
19783;BME280;10051;40.294;-3.754;2022-10-16T00:40:38;94164.38;;;20.08;42.81
19783;BME280;10051;40.294;-3.754;2022-10-16T00:46:15;94134.84;;;19.76;43.41
19783;BME280;10051;40.294;-3.754;2022-10-16T00:48:47;94135.63;;;19.76;43.30
19783;BME280;10051;40.294;-3.754;2022-10-16T00:51:14;94159.94;;;20.00;43.17
19783;BME280;10051;40.294;-3.754;2022-10-16T00:53:40;94136.03;;;19.91;43.19
19783;BME280;10051;40.294;-3.754;2022-10-16T00:56:06;94164.03;;;20.10;42.91
19783;BME280;10051;40.294;-3.754;2022-10-16T00:58:32;94138.16;;;19.98;42.98
19783;BME280;10051;40.294;-3.754;2022-10-16T01:00:57;94093.31;;;19.63;42.68
19783;BME280;10051;40.294;-3.754;2022-10-16T01:03:32;94113.50;;;19.76;42.93
19783;BME280;10051;40.294;-3.754;2022-10-16T01:14:12;94080.31;;;19.20;43.14
19783;BME280;10051;40.294;-3.754;2022-10-16T01:17:18;94078.19;;;19.13;43.32
19783;BME280;10051;40.294;-3.754;2022-10-16T01:22:37;94100.38;;;19.30;43.33
19783;BME280;10051;40.294;-3.754;2022-10-16T01:25:09;94132.38;;;19.42;43.36
19783;BME280;10051;40.294;-3.754;2022-10-16T01:27:38;94132.59;;;19.37;43.34
19783;BME280;10051;40.294;-3.754;2022-10-16T01:30:13;94169.88;;;19.74;43.18
19783;BME280;10051;40.294;-3.754;2022-10-16T01:32:58;94171.28;;;19.72;43.01
19783;BME280;10051;40.294;-3.754;2022-10-16T01:35:37;94181.06;;;19.80;43.23
19783;BME280;10051;40.294;-3.754;2022-10-16T01:38:29;94176.63;;;19.84;43.36
19783;BME280;10051;40.294;-3.754;2022-10-16T01:41:01;94176.19;;;19.82;43.51
19783;BME280;10051;40.294;-3.754;2022-10-16T01:43:34;94175.19;;;19.87;43.17
19783;BME280;10051;40.294;-3.754;2022-10-16T01:46:01;94176.41;;;19.77;43.45
19783;BME280;10051;40.294;-3.754;2022-10-16T01:48:28;94127.34;;;19.28;43.69
19783;BME280;10051;40.294;-3.754;2022-10-16T01:51:01;94156.31;;;19.55;43.35
19783;BME280;10051;40.294;-3.754;2022-10-16T01:53:29;94102.03;;;19.22;43.04
19783;BME280;10051;40.294;-3.754;2022-10-16T01:55:57;94182.41;;;19.74;43.36
19783;BME280;10051;40.294;-3.754;2022-10-16T01:58:25;94182.31;;;19.70;43.60
19783;BME280;10051;40.294;-3.754;2022-10-16T02:00:52;94166.22;;;19.54;43.51
19783;BME280;10051;40.294;-3.754;2022-10-16T02:03:20;94171.66;;;19.45;43.83
19783;BME280;10051;40.294;-3.754;2022-10-16T02:05:54;94181.34;;;19.50;43.93
19783;BME280;10051;40.294;-3.754;2022-10-16T02:08:27;94134.72;;;19.19;43.73
19783;BME280;10051;40.294;-3.754;2022-10-16T02:10:55;94112.06;;;19.00;43.57
19783;BME280;10051;40.294;-3.754;2022-10-16T02:13:27;94136.50;;;19.15;43.99
19783;BME280;10051;40.294;-3.754;2022-10-16T02:15:55;94010.34;;;18.36;43.72
19783;BME280;10051;40.294;-3.754;2022-10-16T02:18:20;94179.91;;;19.40;44.03
19783;BME280;10051;40.294;-3.754;2022-10-16T02:20:53;94186.44;;;19.43;44.28
19783;BME280;10051;40.294;-3.754;2022-10-16T02:23:50;94143.38;;;19.04;44.22
19783;BME280;10051;40.294;-3.754;2022-10-16T02:26:25;94140.34;;;19.05;44.18
19783;BME280;10051;40.294;-3.754;2022-10-16T02:28:55;94125.81;;;19.02;44.21
19783;BME280;10051;40.294;-3.754;2022-10-16T02:31:28;94166.69;;;19.31;43.83
19783;BME280;10051;40.294;-3.754;2022-10-16T02:33:58;94196.56;;;19.37;43.87
19783;BME280;10051;40.294;-3.754;2022-10-16T02:36:25;94154.03;;;19.04;44.14
19783;BME280;10051;40.294;-3.754;2022-10-16T02:38:52;94153.56;;;19.01;44.25
19783;BME280;10051;40.294;-3.754;2022-10-16T02:41:18;94193.44;;;19.23;44.33
19783;BME280;10051;40.294;-3.754;2022-10-16T02:43:43;94118.88;;;18.77;44.12
19783;BME280;10051;40.294;-3.754;2022-10-16T02:46:09;94182.22;;;19.05;44.58
19783;BME280;10051;40.294;-3.754;2022-10-16T02:48:35;94151.28;;;18.79;44.81
19783;BME280;10051;40.294;-3.754;2022-10-16T02:51:01;94142.19;;;18.67;44.76
19783;BME280;10051;40.294;-3.754;2022-10-16T02:53:26;94163.84;;;18.78;44.98
19783;BME280;10051;40.294;-3.754;2022-10-16T02:55:51;94134.94;;;18.55;45.05
19783;BME280;10051;40.294;-3.754;2022-10-16T02:58:17;94163.28;;;18.72;45.02
19783;BME280;10051;40.294;-3.754;2022-10-16T03:00:42;94187.69;;;18.87;45.42
19783;BME280;10051;40.294;-3.754;2022-10-16T03:03:08;94189.16;;;18.84;45.49
19783;BME280;10051;40.294;-3.754;2022-10-16T03:05:33;94121.06;;;18.50;45.49
19783;BME280;10051;40.294;-3.754;2022-10-16T03:07:59;94120.41;;;18.53;45.25
19783;BME280;10051;40.294;-3.754;2022-10-16T03:10:26;94134.84;;;18.64;44.93
19783;BME280;10051;40.294;-3.754;2022-10-16T03:12:51;94116.63;;;18.54;45.23
19783;BME280;10051;40.294;-3.754;2022-10-16T03:15:17;94173.41;;;18.92;45.22
19783;BME280;10051;40.294;-3.754;2022-10-16T03:17:42;94153.88;;;18.87;45.23
19783;BME280;10051;40.294;-3.754;2022-10-16T03:20:08;94179.34;;;19.10;45.51
19783;BME280;10051;40.294;-3.754;2022-10-16T03:22:34;94176.22;;;19.08;45.36
19783;BME280;10051;40.294;-3.754;2022-10-16T03:24:59;94180.00;;;19.07;45.46
19783;BME280;10051;40.294;-3.754;2022-10-16T03:27:25;94165.53;;;18.95;45.39
19783;BME280;10051;40.294;-3.754;2022-10-16T03:29:50;94122.38;;;18.43;45.75
19783;BME280;10051;40.294;-3.754;2022-10-16T03:32:16;94086.75;;;18.36;45.65
19783;BME280;10051;40.294;-3.754;2022-10-16T03:34:41;94134.00;;;18.72;45.60
19783;BME280;10051;40.294;-3.754;2022-10-16T03:37:07;94107.19;;;18.44;45.53
19783;BME280;10051;40.294;-3.754;2022-10-16T03:39:32;94128.66;;;18.72;45.78
19783;BME280;10051;40.294;-3.754;2022-10-16T03:41:58;94108.19;;;18.52;45.51
19783;BME280;10051;40.294;-3.754;2022-10-16T03:44:23;94165.41;;;18.92;45.42
19783;BME280;10051;40.294;-3.754;2022-10-16T03:46:49;94114.53;;;18.60;45.87
19783;BME280;10051;40.294;-3.754;2022-10-16T03:49:14;94119.09;;;18.59;45.88
19783;BME280;10051;40.294;-3.754;2022-10-16T03:51:40;94111.06;;;18.47;46.13
19783;BME280;10051;40.294;-3.754;2022-10-16T03:54:05;94151.16;;;18.63;46.30
19783;BME280;10051;40.294;-3.754;2022-10-16T03:56:30;94165.28;;;18.88;45.99
19783;BME280;10051;40.294;-3.754;2022-10-16T03:58:56;94134.19;;;18.67;45.72
19783;BME280;10051;40.294;-3.754;2022-10-16T04:01:21;94159.50;;;18.86;45.98
19783;BME280;10051;40.294;-3.754;2022-10-16T04:03:47;94150.06;;;18.76;45.77
19783;BME280;10051;40.294;-3.754;2022-10-16T04:06:12;94158.84;;;18.89;46.02
19783;BME280;10051;40.294;-3.754;2022-10-16T04:08:38;94136.41;;;18.65;46.13
19783;BME280;10051;40.294;-3.754;2022-10-16T04:11:04;94137.06;;;18.62;46.39
19783;BME280;10051;40.294;-3.754;2022-10-16T04:13:30;94148.16;;;18.64;46.35
19783;BME280;10051;40.294;-3.754;2022-10-16T04:15:55;94153.91;;;18.54;46.69
19783;BME280;10051;40.294;-3.754;2022-10-16T04:18:21;94164.84;;;18.40;46.91
19783;BME280;10051;40.294;-3.754;2022-10-16T04:20:46;94187.22;;;18.60;46.64
19783;BME280;10051;40.294;-3.754;2022-10-16T04:23:11;94164.84;;;18.40;46.92
19783;BME280;10051;40.294;-3.754;2022-10-16T04:25:37;94187.41;;;18.55;46.82
19783;BME280;10051;40.294;-3.754;2022-10-16T04:28:02;94164.50;;;18.29;47.33
19783;BME280;10051;40.294;-3.754;2022-10-16T04:30:28;94114.66;;;17.96;47.36
19783;BME280;10051;40.294;-3.754;2022-10-16T04:32:53;94183.94;;;18.42;46.90
19783;BME280;10051;40.294;-3.754;2022-10-16T04:35:20;94128.53;;;18.23;46.75
19783;BME280;10051;40.294;-3.754;2022-10-16T04:37:46;94159.63;;;18.43;46.43
19783;BME280;10051;40.294;-3.754;2022-10-16T04:40:12;94122.56;;;18.26;46.75
19783;BME280;10051;40.294;-3.754;2022-10-16T04:42:38;94152.75;;;18.42;46.69
19783;BME280;10051;40.294;-3.754;2022-10-16T04:45:05;94182.78;;;18.64;46.77
19783;BME280;10051;40.294;-3.754;2022-10-16T04:47:30;94161.19;;;18.45;46.65
19783;BME280;10051;40.294;-3.754;2022-10-16T04:49:56;94144.38;;;18.19;47.29
19783;BME280;10051;40.294;-3.754;2022-10-16T04:52:22;94176.81;;;18.34;47.74
19783;BME280;10051;40.294;-3.754;2022-10-16T04:54:50;94125.72;;;17.86;47.89
19783;BME280;10051;40.294;-3.754;2022-10-16T04:57:16;94129.97;;;17.78;47.95
19783;BME280;10051;40.294;-3.754;2022-10-16T04:59:42;94168.19;;;17.94;48.22
19783;BME280;10051;40.294;-3.754;2022-10-16T05:02:07;94083.56;;;17.54;47.96
19783;BME280;10051;40.294;-3.754;2022-10-16T05:04:32;94163.78;;;18.20;48.13
19783;BME280;10051;40.294;-3.754;2022-10-16T05:06:58;94119.97;;;17.96;48.24
19783;BME280;10051;40.294;-3.754;2022-10-16T05:09:23;94134.47;;;18.07;47.87
19783;BME280;10051;40.294;-3.754;2022-10-16T05:11:49;94134.66;;;18.02;48.09
19783;BME280;10051;40.294;-3.754;2022-10-16T05:14:14;94113.81;;;17.83;48.24
19783;BME280;10051;40.294;-3.754;2022-10-16T05:16:40;94167.84;;;18.17;48.08
19783;BME280;10051;40.294;-3.754;2022-10-16T05:19:05;94095.59;;;17.51;48.69
19783;BME280;10051;40.294;-3.754;2022-10-16T05:21:31;94163.47;;;18.00;48.59
19783;BME280;10051;40.294;-3.754;2022-10-16T05:23:56;94128.75;;;17.75;48.74
19783;BME280;10051;40.294;-3.754;2022-10-16T05:26:22;94179.69;;;18.07;48.70
19783;BME280;10051;40.294;-3.754;2022-10-16T05:28:47;94130.88;;;17.82;48.91
19783;BME280;10051;40.294;-3.754;2022-10-16T05:31:14;94177.47;;;17.88;49.06
19783;BME280;10051;40.294;-3.754;2022-10-16T05:33:39;94153.06;;;17.65;49.44
19783;BME280;10051;40.294;-3.754;2022-10-16T05:36:07;94058.47;;;16.83;49.79
19783;BME280;10051;40.294;-3.754;2022-10-16T05:38:34;94142.25;;;17.19;50.42
19783;BME280;10051;40.294;-3.754;2022-10-16T05:40:59;94184.38;;;17.29;50.85
19783;BME280;10051;40.294;-3.754;2022-10-16T05:43:27;94132.81;;;16.91;51.34
19783;BME280;10051;40.294;-3.754;2022-10-16T05:46:03;94141.63;;;16.74;51.61
19783;BME280;10051;40.294;-3.754;2022-10-16T05:48:29;94173.25;;;16.97;52.08
19783;BME280;10051;40.294;-3.754;2022-10-16T05:51:02;94213.81;;;17.15;53.00
19783;BME280;10051;40.294;-3.754;2022-10-16T05:53:29;94128.56;;;16.52;52.69
19783;BME280;10051;40.294;-3.754;2022-10-16T05:55:56;94207.56;;;17.20;51.95
19783;BME280;10051;40.294;-3.754;2022-10-16T05:58:22;94185.00;;;17.26;51.79
19783;BME280;10051;40.294;-3.754;2022-10-16T06:01:09;94220.81;;;17.59;51.37
19783;BME280;10051;40.294;-3.754;2022-10-16T06:03:35;94219.72;;;17.60;51.51
19783;BME280;10051;40.294;-3.754;2022-10-16T06:06:10;94231.53;;;17.71;50.76
19783;BME280;10051;40.294;-3.754;2022-10-16T06:08:37;94153.91;;;16.97;51.94
19783;BME280;10051;40.294;-3.754;2022-10-16T06:11:05;94229.53;;;17.38;52.43
19783;BME280;10051;40.294;-3.754;2022-10-16T06:13:31;94178.88;;;16.87;53.22
19783;BME280;10051;40.294;-3.754;2022-10-16T06:15:58;94174.41;;;16.70;53.73
19783;BME280;10051;40.294;-3.754;2022-10-16T06:18:25;94225.28;;;16.89;53.43
19783;BME280;10051;40.294;-3.754;2022-10-16T06:20:51;94147.94;;;16.52;53.62
19783;BME280;10051;40.294;-3.754;2022-10-16T06:23:16;94197.38;;;16.74;53.83
19783;BME280;10051;40.294;-3.754;2022-10-16T06:25:42;94195.94;;;16.77;54.07
19783;BME280;10051;40.294;-3.754;2022-10-16T06:28:07;94227.78;;;16.94;53.83
19783;BME280;10051;40.294;-3.754;2022-10-16T06:30:32;94203.75;;;16.82;53.84
19783;BME280;10051;40.294;-3.754;2022-10-16T06:32:58;94220.31;;;16.79;53.88
19783;BME280;10051;40.294;-3.754;2022-10-16T06:35:23;94186.66;;;16.53;54.07
19783;BME280;10051;40.294;-3.754;2022-10-16T06:37:49;94221.88;;;16.98;53.73
19783;BME280;10051;40.294;-3.754;2022-10-16T06:40:15;94194.34;;;16.93;53.16
19783;BME280;10051;40.294;-3.754;2022-10-16T06:42:41;94242.19;;;17.32;53.10
19783;BME280;10051;40.294;-3.754;2022-10-16T06:45:07;94234.31;;;17.15;53.61
19783;BME280;10051;40.294;-3.754;2022-10-16T06:47:33;94222.94;;;16.88;53.58
19783;BME280;10051;40.294;-3.754;2022-10-16T06:49:58;94234.94;;;17.12;53.25
19783;BME280;10051;40.294;-3.754;2022-10-16T06:52:23;94227.25;;;17.19;52.69
19783;BME280;10051;40.294;-3.754;2022-10-16T06:54:49;94225.69;;;17.18;52.55
19783;BME280;10051;40.294;-3.754;2022-10-16T06:57:15;94242.06;;;17.29;52.57
19783;BME280;10051;40.294;-3.754;2022-10-16T06:59:41;94238.78;;;17.23;52.67
19783;BME280;10051;40.294;-3.754;2022-10-16T07:02:08;94261.47;;;17.20;53.54
19783;BME280;10051;40.294;-3.754;2022-10-16T07:04:35;94223.59;;;16.76;53.78
19783;BME280;10051;40.294;-3.754;2022-10-16T07:07:01;94268.97;;;17.18;53.81
19783;BME280;10051;40.294;-3.754;2022-10-16T07:09:26;94235.88;;;17.07;53.41
19783;BME280;10051;40.294;-3.754;2022-10-16T07:11:52;94260.66;;;17.29;53.53
19783;BME280;10051;40.294;-3.754;2022-10-16T07:14:19;94280.47;;;17.40;53.69
19783;BME280;10051;40.294;-3.754;2022-10-16T07:16:45;94251.13;;;17.28;52.55
19783;BME280;10051;40.294;-3.754;2022-10-16T07:19:11;94216.56;;;16.98;53.46
19783;BME280;10051;40.294;-3.754;2022-10-16T07:21:38;94226.97;;;16.94;53.15
19783;BME280;10051;40.294;-3.754;2022-10-16T07:24:06;94227.94;;;16.89;52.41
19783;BME280;10051;40.294;-3.754;2022-10-16T07:26:33;94143.09;;;16.37;52.12
19783;BME280;10051;40.294;-3.754;2022-10-16T07:28:59;94246.03;;;17.14;51.55
19783;BME280;10051;40.294;-3.754;2022-10-16T07:31:26;94264.25;;;17.24;51.67
19783;BME280;10051;40.294;-3.754;2022-10-16T07:33:52;94256.56;;;17.31;51.42
19783;BME280;10051;40.294;-3.754;2022-10-16T07:36:19;94294.31;;;17.63;51.32
19783;BME280;10051;40.294;-3.754;2022-10-16T07:38:45;94233.66;;;17.18;50.82
19783;BME280;10051;40.294;-3.754;2022-10-16T07:41:14;94268.75;;;17.41;50.67
19783;BME280;10051;40.294;-3.754;2022-10-16T07:43:40;94248.34;;;17.15;50.69
19783;BME280;10051;40.294;-3.754;2022-10-16T07:46:05;94193.28;;;16.77;50.17
19783;BME280;10051;40.294;-3.754;2022-10-16T07:48:33;94296.56;;;17.44;50.22
19783;BME280;10051;40.294;-3.754;2022-10-16T07:51:00;94318.72;;;17.57;50.05
19783;BME280;10051;40.294;-3.754;2022-10-16T07:53:27;94332.28;;;17.64;48.99
19783;BME280;10051;40.294;-3.754;2022-10-16T07:55:57;94276.25;;;17.39;48.43
19783;BME280;10051;40.294;-3.754;2022-10-16T07:58:23;94255.19;;;17.34;47.97
19783;BME280;10051;40.294;-3.754;2022-10-16T08:00:49;94246.00;;;17.22;48.24
19783;BME280;10051;40.294;-3.754;2022-10-16T08:03:14;94360.25;;;18.18;47.56
19783;BME280;10051;40.294;-3.754;2022-10-16T08:05:39;94292.28;;;17.90;47.26
19783;BME280;10051;40.294;-3.754;2022-10-16T08:08:05;94344.69;;;18.50;46.98
19783;BME280;10051;40.294;-3.754;2022-10-16T08:10:30;94350.75;;;18.59;46.76
19783;BME280;10051;40.294;-3.754;2022-10-16T08:12:57;94362.13;;;18.68;46.68
19783;BME280;10051;40.294;-3.754;2022-10-16T08:15:22;94343.78;;;18.67;46.36
19783;BME280;10051;40.294;-3.754;2022-10-16T08:17:59;94326.41;;;18.48;46.99
19783;BME280;10051;40.294;-3.754;2022-10-16T08:20:25;94359.56;;;18.72;46.80
19783;BME280;10051;40.294;-3.754;2022-10-16T08:22:51;94302.25;;;18.32;46.69
19783;BME280;10051;40.294;-3.754;2022-10-16T08:25:17;94285.28;;;18.37;45.50
19783;BME280;10051;40.294;-3.754;2022-10-16T08:27:42;94365.47;;;18.99;45.53
19783;BME280;10051;40.294;-3.754;2022-10-16T08:30:10;94353.03;;;18.69;45.89
19783;BME280;10051;40.294;-3.754;2022-10-16T08:32:36;94365.53;;;18.90;45.34
19783;BME280;10051;40.294;-3.754;2022-10-16T08:35:01;94366.97;;;19.09;45.17
19783;BME280;10051;40.294;-3.754;2022-10-16T08:37:31;94345.53;;;19.05;44.45
19783;BME280;10051;40.294;-3.754;2022-10-16T08:39:56;94270.66;;;18.64;44.00
19783;BME280;10051;40.294;-3.754;2022-10-16T08:42:39;94368.38;;;19.27;44.51
19783;BME280;10051;40.294;-3.754;2022-10-16T08:51:01;94323.91;;;18.85;45.06
19783;BME280;10051;40.294;-3.754;2022-10-16T08:53:33;94393.88;;;19.50;44.86
19783;BME280;10051;40.294;-3.754;2022-10-16T08:56:02;94333.06;;;19.30;44.88
19783;BME280;10051;40.294;-3.754;2022-10-16T08:58:29;94394.03;;;19.78;44.37
19783;BME280;10051;40.294;-3.754;2022-10-16T09:01:01;94358.47;;;19.61;43.53
19783;BME280;10051;40.294;-3.754;2022-10-16T09:11:40;94401.53;;;20.47;42.53
19783;BME280;10051;40.294;-3.754;2022-10-16T09:19:44;94399.16;;;20.95;41.36
19783;BME280;10051;40.294;-3.754;2022-10-16T09:22:15;94390.97;;;21.04;41.48
19783;BME280;10051;40.294;-3.754;2022-10-16T09:24:42;94268.31;;;20.17;41.76
19783;BME280;10051;40.294;-3.754;2022-10-16T09:27:12;94318.38;;;20.61;40.96
19783;BME280;10051;40.294;-3.754;2022-10-16T09:29:39;94386.59;;;21.12;41.59
19783;BME280;10051;40.294;-3.754;2022-10-16T09:32:14;94358.91;;;21.04;40.98
19783;BME280;10051;40.294;-3.754;2022-10-16T09:34:47;94371.91;;;21.34;40.72
19783;BME280;10051;40.294;-3.754;2022-10-16T09:37:17;94327.59;;;21.04;40.58
19783;BME280;10051;40.294;-3.754;2022-10-16T09:39:50;94345.00;;;21.43;40.09
19783;BME280;10051;40.294;-3.754;2022-10-16T09:42:20;94392.91;;;21.48;41.41
19783;BME280;10051;40.294;-3.754;2022-10-16T09:44:49;94270.09;;;20.54;41.19
19783;BME280;10051;40.294;-3.754;2022-10-16T09:47:18;94402.25;;;21.54;41.03
19783;BME280;10051;40.294;-3.754;2022-10-16T09:50:04;94291.84;;;21.09;40.17
19783;BME280;10051;40.294;-3.754;2022-10-16T09:52:32;94394.38;;;21.74;39.90
19783;BME280;10051;40.294;-3.754;2022-10-16T09:55:00;94398.44;;;21.99;39.78
19783;BME280;10051;40.294;-3.754;2022-10-16T09:57:27;94319.75;;;21.56;40.13
19783;BME280;10051;40.294;-3.754;2022-10-16T09:59:55;94380.53;;;22.20;39.12
19783;BME280;10051;40.294;-3.754;2022-10-16T10:02:30;94392.47;;;22.22;39.84
19783;BME280;10051;40.294;-3.754;2022-10-16T10:04:57;94330.03;;;21.86;39.50
19783;BME280;10051;40.294;-3.754;2022-10-16T10:07:32;94392.22;;;22.27;39.37
19783;BME280;10051;40.294;-3.754;2022-10-16T10:10:01;94390.97;;;22.41;39.40
19783;BME280;10051;40.294;-3.754;2022-10-16T10:12:28;94273.09;;;21.69;39.12
19783;BME280;10051;40.294;-3.754;2022-10-16T10:14:56;94303.59;;;22.01;39.05
19783;BME280;10051;40.294;-3.754;2022-10-16T10:17:25;94371.44;;;22.56;38.49
19783;BME280;10051;40.294;-3.754;2022-10-16T10:24:56;94380.47;;;22.68;38.93
19783;BME280;10051;40.294;-3.754;2022-10-16T10:27:31;94332.63;;;22.50;38.04
19783;BME280;10051;40.294;-3.754;2022-10-16T10:30:16;94365.91;;;22.85;37.85
19783;BME280;10051;40.294;-3.754;2022-10-16T10:35:54;94289.88;;;22.38;37.94
19783;BME280;10051;40.294;-3.754;2022-10-16T10:38:37;94305.09;;;22.50;38.72
19783;BME280;10051;40.294;-3.754;2022-10-16T10:46:35;94302.03;;;22.51;37.76
19783;BME280;10051;40.294;-3.754;2022-10-16T10:51:31;94365.81;;;23.01;38.07
19783;BME280;10051;40.294;-3.754;2022-10-16T10:56:44;94357.69;;;23.17;37.57
19783;BME280;10051;40.294;-3.754;2022-10-16T11:05:36;94392.84;;;23.74;37.68
19783;BME280;10051;40.294;-3.754;2022-10-16T11:08:21;94347.63;;;23.53;37.24
19783;BME280;10051;40.294;-3.754;2022-10-16T11:11:19;94396.94;;;23.88;36.71
19783;BME280;10051;40.294;-3.754;2022-10-16T11:16:17;94389.63;;;23.88;37.12
19783;BME280;10051;40.294;-3.754;2022-10-16T11:18:52;94387.75;;;23.89;37.18
19783;BME280;10051;40.294;-3.754;2022-10-16T11:21:21;94291.47;;;23.41;36.84
19783;BME280;10051;40.294;-3.754;2022-10-16T11:23:55;94377.00;;;24.12;36.87
19783;BME280;10051;40.294;-3.754;2022-10-16T11:26:34;94338.59;;;24.08;37.05
19783;BME280;10051;40.294;-3.754;2022-10-16T11:29:03;94312.81;;;24.03;36.65
19783;BME280;10051;40.294;-3.754;2022-10-16T11:31:39;94376.53;;;24.60;36.38
19783;BME280;10051;40.294;-3.754;2022-10-16T11:34:21;94373.03;;;24.83;36.04
19783;BME280;10051;40.294;-3.754;2022-10-16T11:37:14;94334.34;;;24.64;36.10
19783;BME280;10051;40.294;-3.754;2022-10-16T11:39:38;94358.03;;;24.82;35.95
19783;BME280;10051;40.294;-3.754;2022-10-16T11:44:55;94355.28;;;24.78;35.50
19783;BME280;10051;40.294;-3.754;2022-10-16T11:47:40;94248.13;;;24.16;35.41
19783;BME280;10051;40.294;-3.754;2022-10-16T11:55:35;94343.16;;;24.61;36.07
19783;BME280;10051;40.294;-3.754;2022-10-16T11:58:07;94326.50;;;24.52;36.60
19783;BME280;10051;40.294;-3.754;2022-10-16T12:00:41;94283.66;;;24.32;36.70
19783;BME280;10051;40.294;-3.754;2022-10-16T12:03:25;94324.63;;;24.53;37.41
19783;BME280;10051;40.294;-3.754;2022-10-16T12:08:29;94343.78;;;24.51;37.49
19783;BME280;10051;40.294;-3.754;2022-10-16T12:11:20;94356.91;;;24.56;36.57
19783;BME280;10051;40.294;-3.754;2022-10-16T12:13:46;94308.19;;;24.31;36.82
19783;BME280;10051;40.294;-3.754;2022-10-16T12:18:44;94308.66;;;24.37;36.75
19783;BME280;10051;40.294;-3.754;2022-10-16T12:21:11;94271.53;;;24.15;37.08
19783;BME280;10051;40.294;-3.754;2022-10-16T12:23:49;94332.41;;;24.61;36.92
19783;BME280;10051;40.294;-3.754;2022-10-16T12:26:27;94308.50;;;24.53;35.97
19783;BME280;10051;40.294;-3.754;2022-10-16T12:28:54;94289.13;;;24.40;36.40
19783;BME280;10051;40.294;-3.754;2022-10-16T12:31:20;94317.88;;;24.66;36.50
19783;BME280;10051;40.294;-3.754;2022-10-16T12:34:01;94189.28;;;24.03;35.79
19783;BME280;10051;40.294;-3.754;2022-10-16T12:36:32;94257.06;;;24.54;35.31
19783;BME280;10051;40.294;-3.754;2022-10-16T12:38:59;94215.16;;;24.15;35.99
19783;BME280;10051;40.294;-3.754;2022-10-16T12:43:53;94280.88;;;24.56;35.65
19783;BME280;10051;40.294;-3.754;2022-10-16T12:46:21;94331.72;;;24.99;35.86
19783;BME280;10051;40.294;-3.754;2022-10-16T12:48:47;94337.50;;;25.01;36.17
19783;BME280;10051;40.294;-3.754;2022-10-16T12:51:33;94325.28;;;25.07;36.07
19783;BME280;10051;40.294;-3.754;2022-10-16T12:54:04;94325.78;;;25.16;36.03
19783;BME280;10051;40.294;-3.754;2022-10-16T12:56:52;94299.81;;;24.93;35.77
19783;BME280;10051;40.294;-3.754;2022-10-16T13:15:22;94285.72;;;25.45;35.11
19783;BME280;10051;40.294;-3.754;2022-10-16T13:20:26;94232.19;;;25.40;34.13
19783;BME280;10051;40.294;-3.754;2022-10-16T13:28:32;94240.47;;;25.62;34.05
19783;BME280;10051;40.294;-3.754;2022-10-16T13:31:00;94255.25;;;25.82;34.30
19783;BME280;10051;40.294;-3.754;2022-10-16T13:33:36;94251.03;;;25.81;34.44
19783;BME280;10051;40.294;-3.754;2022-10-16T13:36:04;94242.84;;;25.71;33.15
19783;BME280;10051;40.294;-3.754;2022-10-16T13:38:38;94179.38;;;25.17;33.55
19783;BME280;10051;40.294;-3.754;2022-10-16T13:41:11;94203.72;;;25.32;34.22
19783;BME280;10051;40.294;-3.754;2022-10-16T13:43:42;94204.50;;;25.36;34.46
19783;BME280;10051;40.294;-3.754;2022-10-16T13:46:15;94198.75;;;25.41;34.54
19783;BME280;10051;40.294;-3.754;2022-10-16T13:48:40;94121.22;;;25.02;34.94
19783;BME280;10051;40.294;-3.754;2022-10-16T13:51:11;94185.16;;;25.68;34.69
19783;BME280;10051;40.294;-3.754;2022-10-16T13:53:38;94131.81;;;25.32;34.27
19783;BME280;10051;40.294;-3.754;2022-10-16T13:56:07;94215.25;;;25.84;34.11
19783;BME280;10051;40.294;-3.754;2022-10-16T13:58:33;94216.06;;;25.92;34.27
19783;BME280;10051;40.294;-3.754;2022-10-16T14:01:02;94206.84;;;25.93;34.14
19783;BME280;10051;40.294;-3.754;2022-10-16T14:03:29;94138.94;;;25.55;34.40
19783;BME280;10051;40.294;-3.754;2022-10-16T14:05:59;94208.03;;;26.00;33.90
19783;BME280;10051;40.294;-3.754;2022-10-16T14:08:26;94220.47;;;26.19;32.82
19783;BME280;10051;40.294;-3.754;2022-10-16T14:10:55;94187.22;;;25.93;32.54
19783;BME280;10051;40.294;-3.754;2022-10-16T14:13:43;94162.88;;;25.71;33.04
19783;BME280;10051;40.294;-3.754;2022-10-16T14:16:18;94207.28;;;26.06;32.67
19783;BME280;10051;40.294;-3.754;2022-10-16T14:18:49;94249.31;;;26.18;32.75
19783;BME280;10051;40.294;-3.754;2022-10-16T14:21:18;94124.88;;;25.28;32.58
19783;BME280;10051;40.294;-3.754;2022-10-16T14:23:43;94189.72;;;25.64;32.66
19783;BME280;10051;40.294;-3.754;2022-10-16T14:28:35;94205.59;;;25.80;33.05
19783;BME280;10051;40.294;-3.754;2022-10-16T14:31:02;94185.63;;;25.84;32.68
19783;BME280;10051;40.294;-3.754;2022-10-16T14:36:13;94171.44;;;25.95;31.40
19783;BME280;10051;40.294;-3.754;2022-10-16T14:38:42;94212.44;;;26.26;31.64
19783;BME280;10051;40.294;-3.754;2022-10-16T14:41:08;94196.91;;;26.08;32.16
19783;BME280;10051;40.294;-3.754;2022-10-16T14:43:40;94171.03;;;25.93;32.15
19783;BME280;10051;40.294;-3.754;2022-10-16T14:46:17;94164.13;;;25.92;32.21